createdAt,value
2022-08-12T00:00:48.593Z,25.27
2022-08-12T00:03:34.368Z,25.19
2022-08-12T00:06:19.864Z,25.11
2022-08-12T00:09:05.078Z,25.03
2022-08-12T00:11:50.670Z,24.99
2022-08-12T00:14:37.313Z,24.93
2022-08-12T00:17:23.368Z,24.91
2022-08-12T00:20:08.923Z,24.87
2022-08-12T00:22:59.745Z,24.87
2022-08-12T00:26:20.609Z,24.87
2022-08-12T00:29:00.504Z,24.80
2022-08-12T00:31:47.466Z,24.74
2022-08-12T00:34:32.895Z,24.68
2022-08-12T00:37:18.332Z,24.59
2022-08-12T00:40:04.632Z,24.53
2022-08-12T00:42:39.078Z,24.47
2022-08-12T00:45:08.261Z,24.47
2022-08-12T00:47:37.686Z,24.44
2022-08-12T00:50:06.627Z,24.41
2022-08-12T00:52:34.780Z,24.38
2022-08-12T00:55:03.130Z,24.32
2022-08-12T00:57:31.790Z,24.27
2022-08-12T01:00:03.373Z,24.27
2022-08-12T01:02:32.558Z,24.25
2022-08-12T01:05:20.303Z,24.26
2022-08-12T01:08:05.909Z,24.24
2022-08-12T01:10:52.925Z,24.21
2022-08-12T01:13:21.484Z,24.20
2022-08-12T01:15:50.511Z,24.21
2022-08-12T01:18:18.756Z,24.24
2022-08-12T01:21:00.950Z,24.27
2022-08-12T01:23:50.291Z,24.29
2022-08-12T01:26:20.993Z,24.26
2022-08-12T01:28:51.100Z,24.26
2022-08-12T01:31:19.823Z,24.22
2022-08-12T01:33:57.327Z,24.21
2022-08-12T01:36:25.867Z,24.11
2022-08-12T01:38:56.366Z,24.09
2022-08-12T01:41:27.383Z,24.07
2022-08-12T01:43:55.424Z,24.07
2022-08-12T01:46:31.067Z,24.08
2022-08-12T01:49:04.798Z,24.08
2022-08-12T01:52:20.663Z,24.04
2022-08-12T01:54:29.104Z,23.95
2022-08-12T01:57:00.406Z,23.89
2022-08-12T01:59:50.252Z,23.80
2022-08-12T02:02:18.986Z,23.69
2022-08-12T02:05:23.098Z,23.69
2022-08-12T02:08:18.894Z,23.72
2022-08-12T02:11:07.767Z,23.72
2022-08-12T02:13:50.701Z,23.73
2022-08-12T02:16:30.469Z,23.73
2022-08-12T02:19:13.692Z,23.74
2022-08-12T02:21:53.682Z,23.71
2022-08-12T02:24:22.582Z,23.67
2022-08-12T02:26:52.563Z,23.64
2022-08-12T02:29:22.092Z,23.59
2022-08-12T02:31:50.073Z,23.54
2022-08-12T02:34:19.063Z,23.47
2022-08-12T02:36:47.357Z,23.44
2022-08-12T02:39:16.011Z,23.43
2022-08-12T02:41:45.344Z,23.43
2022-08-12T02:44:15.204Z,23.42
2022-08-12T02:46:49.167Z,23.45
2022-08-12T02:49:20.325Z,23.42
2022-08-12T02:51:48.367Z,23.39
2022-08-12T02:54:16.396Z,23.37
2022-08-12T02:56:47.226Z,23.34
2022-08-12T02:59:20.262Z,23.31
2022-08-12T03:01:50.856Z,23.29
2022-08-12T03:04:23.991Z,23.35
2022-08-12T03:06:56.784Z,23.37
2022-08-12T03:09:24.745Z,23.37
2022-08-12T03:11:59.468Z,23.36
2022-08-12T03:14:29.711Z,23.34
2022-08-12T03:17:09.530Z,23.32
2022-08-12T03:19:38.284Z,23.28
2022-08-12T03:22:26.241Z,23.25
2022-08-12T03:24:54.250Z,23.19
2022-08-12T03:27:22.262Z,23.16
2022-08-12T03:29:51.534Z,23.10
2022-08-12T03:32:35.723Z,23.14
2022-08-12T03:35:07.589Z,23.14
2022-08-12T03:37:35.661Z,23.10
2022-08-12T03:40:03.728Z,23.08
2022-08-12T03:42:34.818Z,23.01
2022-08-12T03:45:32.816Z,23.01
2022-08-12T03:48:24.491Z,22.91
2022-08-12T03:51:10.002Z,22.83
2022-08-12T03:53:56.139Z,22.80
2022-08-12T03:56:41.420Z,22.76
2022-08-12T03:59:27.032Z,22.73
2022-08-12T04:01:57.690Z,22.71
2022-08-12T04:04:28.689Z,22.72
2022-08-12T04:06:58.080Z,22.69
2022-08-12T04:09:26.167Z,22.66
2022-08-12T04:12:11.509Z,22.66
2022-08-12T04:14:40.466Z,22.64
2022-08-12T04:17:08.588Z,22.71
2022-08-12T04:19:37.980Z,22.76
2022-08-12T04:22:06.160Z,22.78
2022-08-12T04:24:35.980Z,22.79
2022-08-12T04:27:05.480Z,22.79
2022-08-12T04:30:29.101Z,22.79
2022-08-12T04:32:22.452Z,22.77
2022-08-12T04:34:52.112Z,22.72
2022-08-12T04:37:20.199Z,22.54
2022-08-12T04:39:48.355Z,22.63
2022-08-12T04:42:16.634Z,22.61
2022-08-12T04:44:45.264Z,22.60
2022-08-12T04:47:14.212Z,22.56
2022-08-12T04:49:42.708Z,22.50
2022-08-12T04:52:12.188Z,22.45
2022-08-12T04:54:40.171Z,22.40
2022-08-12T04:57:09.826Z,22.38
2022-08-12T04:59:43.712Z,22.33
2022-08-12T05:02:20.557Z,22.32
2022-08-12T05:04:50.810Z,22.29
2022-08-12T05:07:20.363Z,22.29
2022-08-12T05:10:00.481Z,22.33
2022-08-12T05:12:33.518Z,22.36
2022-08-12T05:15:01.776Z,22.39
2022-08-12T05:17:29.907Z,22.41
2022-08-12T05:19:58.350Z,22.43
2022-08-12T05:22:28.215Z,22.43
2022-08-12T05:24:56.264Z,22.43
2022-08-12T05:27:24.248Z,22.42
2022-08-12T05:30:06.408Z,22.44
2022-08-12T05:32:37.352Z,22.46
2022-08-12T05:35:08.113Z,22.50
2022-08-12T05:37:37.553Z,22.59
2022-08-12T05:40:10.916Z,22.68
2022-08-12T05:42:39.650Z,22.79
2022-08-12T05:45:08.857Z,22.88
2022-08-12T05:47:53.350Z,22.97
2022-08-12T05:50:22.398Z,23.05
2022-08-12T05:52:53.859Z,23.12
2022-08-12T05:55:25.831Z,23.17
2022-08-12T05:57:56.392Z,23.25
2022-08-12T06:00:25.768Z,23.34
2022-08-12T06:02:57.115Z,23.44
2022-08-12T06:05:25.187Z,23.61
2022-08-12T06:08:01.485Z,23.76
2022-08-12T06:10:33.081Z,23.77
2022-08-12T06:13:02.604Z,24.02
2022-08-12T06:15:31.302Z,24.12
2022-08-12T06:18:13.747Z,24.26
2022-08-12T06:20:44.188Z,24.26
2022-08-12T06:23:15.345Z,24.37
2022-08-12T06:25:43.687Z,24.38
2022-08-12T06:28:17.515Z,24.45
2022-08-12T06:31:02.695Z,24.49
2022-08-12T06:33:53.849Z,24.53
2022-08-12T06:36:23.320Z,24.55
2022-08-12T06:38:53.184Z,24.57
2022-08-12T06:41:38.476Z,24.62
2022-08-12T06:44:08.017Z,24.63
2022-08-12T06:46:36.839Z,24.74
2022-08-12T06:49:06.917Z,24.83
2022-08-12T06:51:35.352Z,24.95
2022-08-12T06:54:04.912Z,25.03
2022-08-12T06:57:02.452Z,25.15
2022-08-12T06:59:21.767Z,25.26
2022-08-12T07:01:51.705Z,25.36
2022-08-12T07:04:37.473Z,25.48
2022-08-12T07:07:07.265Z,25.59
2022-08-12T07:09:58.105Z,25.64
2022-08-12T07:12:28.318Z,25.81
2022-08-12T07:14:57.523Z,25.94
2022-08-12T07:17:25.563Z,26.03
2022-08-12T07:19:55.455Z,26.12
2022-08-12T07:22:26.258Z,26.23
2022-08-12T07:25:09.417Z,26.32
2022-08-12T07:27:40.740Z,26.41
2022-08-12T07:30:10.221Z,26.53
2022-08-12T07:32:38.303Z,26.63
2022-08-12T07:35:07.531Z,26.71
2022-08-12T07:37:37.586Z,26.80
2022-08-12T07:40:11.612Z,26.91
2022-08-12T07:42:40.054Z,27.01
2022-08-12T07:45:09.567Z,27.08
2022-08-12T07:47:37.973Z,27.16
2022-08-12T07:50:09.328Z,27.26
2022-08-12T07:52:38.465Z,27.33
2022-08-12T07:55:09.057Z,27.40
2022-08-12T07:57:37.152Z,27.50
2022-08-12T08:00:06.258Z,27.57
2022-08-12T08:02:36.261Z,27.66
2022-08-12T08:05:04.505Z,27.75
2022-08-12T08:07:32.580Z,27.85
2022-08-12T08:10:01.599Z,27.89
2022-08-12T08:12:48.695Z,28.02
2022-08-12T08:15:17.133Z,28.13
2022-08-12T08:17:59.282Z,28.26
2022-08-12T08:20:29.404Z,28.37
2022-08-12T08:22:58.218Z,28.43
2022-08-12T08:25:36.146Z,28.51
2022-08-12T08:28:08.330Z,28.55
2022-08-12T08:30:38.343Z,28.63
2022-08-12T08:33:24.644Z,28.69
2022-08-12T08:35:57.302Z,28.79
2022-08-12T08:38:32.277Z,28.87
2022-08-12T08:42:17.225Z,28.98
2022-08-12T08:44:11.051Z,29.06
2022-08-12T08:46:39.608Z,29.13
2022-08-12T08:49:07.655Z,29.21
2022-08-12T08:51:36.551Z,29.29
2022-08-12T08:54:04.927Z,29.38
2022-08-12T08:56:33.000Z,29.46
2022-08-12T08:59:01.102Z,29.56
2022-08-12T09:01:37.554Z,29.65
2022-08-12T09:05:09.477Z,29.79
2022-08-12T09:07:16.894Z,29.90
2022-08-12T09:10:02.513Z,30.03
2022-08-12T09:12:54.420Z,30.21
2022-08-12T09:15:36.809Z,30.36
2022-08-12T09:18:08.866Z,30.44
2022-08-12T09:20:38.337Z,30.54
2022-08-12T09:24:00.012Z,30.69
2022-08-12T09:26:03.739Z,30.85
2022-08-12T09:28:33.582Z,30.96
2022-08-12T09:31:01.590Z,31.08
2022-08-12T09:34:25.701Z,31.18
2022-08-12T09:36:31.466Z,31.36
2022-08-12T09:40:06.017Z,31.45
2022-08-12T09:42:39.079Z,31.60
2022-08-12T09:46:05.221Z,31.70
2022-08-12T09:48:19.953Z,31.77
2022-08-12T09:50:55.628Z,31.84
2022-08-12T09:53:36.609Z,31.92
2022-08-12T09:57:00.304Z,32.02
2022-08-12T09:58:59.931Z,32.10
2022-08-12T10:01:35.423Z,32.22
2022-08-12T10:04:19.622Z,32.29
2022-08-12T10:06:54.783Z,32.38
2022-08-12T10:09:28.519Z,32.46
2022-08-12T10:12:33.120Z,32.57
2022-08-12T10:16:02.952Z,32.70
2022-08-12T10:18:07.903Z,32.77
2022-08-12T10:20:36.121Z,32.94
2022-08-12T10:23:05.740Z,33.04
2022-08-12T10:26:35.643Z,33.16
2022-08-12T10:29:02.831Z,33.28
2022-08-12T10:32:19.767Z,33.35
2022-08-12T10:34:24.037Z,33.48
2022-08-12T10:36:58.785Z,33.61
2022-08-12T10:40:06.874Z,33.75
2022-08-12T10:42:47.870Z,33.91
2022-08-12T10:45:17.200Z,34.03
2022-08-12T10:48:19.701Z,34.10
2022-08-12T10:50:58.437Z,34.21
2022-08-12T10:53:45.402Z,34.30
2022-08-12T10:56:16.469Z,34.39
2022-08-12T10:58:45.980Z,34.48
2022-08-12T11:01:50.213Z,34.57
2022-08-12T11:04:32.104Z,34.69
2022-08-12T11:07:05.911Z,34.79
2022-08-12T11:09:59.697Z,34.89
2022-08-12T11:12:55.938Z,35.03
2022-08-12T11:15:33.075Z,35.16
2022-08-12T11:18:12.001Z,35.33
2022-08-12T11:20:48.034Z,35.44
2022-08-12T11:23:25.150Z,35.54
2022-08-12T11:26:06.208Z,35.80
2022-08-12T11:28:37.520Z,35.85
2022-08-12T11:31:10.062Z,35.48
2022-08-12T11:34:06.139Z,35.54
2022-08-12T11:36:29.399Z,35.87
2022-08-12T11:39:04.360Z,36.33
2022-08-12T11:41:34.573Z,36.87
2022-08-12T11:44:37.217Z,37.31
2022-08-12T11:46:53.294Z,37.82
2022-08-12T11:49:31.371Z,38.20
2022-08-12T11:52:02.005Z,38.56
2022-08-12T11:54:30.439Z,38.85
2022-08-12T11:57:00.213Z,39.16
2022-08-12T12:02:20.847Z,39.77
2022-08-12T12:04:52.987Z,40.08
2022-08-12T12:07:33.954Z,40.33
2022-08-12T12:10:11.915Z,40.54
2022-08-12T12:12:41.509Z,40.70
2022-08-12T12:15:25.188Z,40.78
2022-08-12T12:18:05.524Z,41.03
2022-08-12T12:20:35.120Z,41.25
2022-08-12T12:23:04.236Z,41.47
2022-08-12T12:25:59.696Z,41.75
2022-08-12T12:28:37.942Z,41.95
2022-08-12T12:31:14.859Z,42.02
2022-08-12T12:33:58.958Z,42.13
2022-08-12T12:36:30.296Z,42.17
2022-08-12T12:39:00.408Z,42.19
2022-08-12T12:42:45.660Z,42.30
2022-08-12T12:44:25.849Z,42.57
2022-08-12T12:46:59.840Z,42.74
2022-08-12T12:49:28.967Z,42.92
2022-08-12T12:52:19.270Z,42.96
2022-08-12T12:54:52.976Z,42.94
2022-08-12T12:57:21.589Z,43.08
2022-08-12T13:00:18.945Z,43.31
2022-08-12T13:02:55.496Z,43.32
2022-08-12T13:05:27.504Z,43.35
2022-08-12T13:08:01.153Z,43.42
2022-08-12T13:10:30.747Z,43.51
2022-08-12T13:14:06.866Z,43.58
2022-08-12T13:15:53.929Z,43.65
2022-08-12T13:18:36.766Z,43.70
2022-08-12T13:21:06.024Z,43.81
2022-08-12T13:23:48.067Z,43.99
2022-08-12T13:26:17.272Z,44.28
2022-08-12T13:28:53.109Z,44.58
2022-08-12T13:31:22.245Z,44.71
2022-08-12T13:34:32.053Z,44.84
2022-08-12T13:36:43.430Z,45.02
2022-08-12T13:39:12.940Z,45.03
2022-08-12T13:41:44.644Z,45.02
2022-08-12T13:44:13.059Z,44.90
2022-08-12T13:46:42.224Z,44.87
2022-08-12T13:49:17.667Z,44.98
2022-08-12T13:52:01.791Z,45.19
2022-08-12T13:54:31.715Z,45.43
2022-08-12T13:57:00.056Z,45.58
2022-08-12T13:59:28.634Z,45.66
2022-08-12T14:02:17.581Z,45.72
2022-08-12T14:04:56.701Z,45.80
2022-08-12T14:07:26.117Z,45.91
2022-08-12T14:10:11.806Z,46.06
2022-08-12T14:12:54.756Z,46.10
2022-08-12T14:15:36.753Z,46.05
2022-08-12T14:18:13.291Z,46.06
2022-08-12T14:20:43.763Z,46.08
2022-08-12T14:24:01.451Z,46.19
2022-08-12T14:26:05.273Z,46.40
2022-08-12T14:28:35.034Z,46.35
2022-08-12T14:31:07.229Z,46.20
2022-08-12T14:33:48.847Z,46.21
2022-08-12T14:36:21.708Z,46.35
2022-08-12T14:38:49.935Z,46.46
2022-08-12T14:41:19.125Z,46.55
2022-08-12T14:44:04.472Z,46.83
2022-08-12T14:46:34.603Z,46.89
2022-08-12T14:50:01.340Z,46.93
2022-08-12T14:52:38.906Z,47.10
2022-08-12T14:57:35.626Z,47.28
2022-08-12T15:00:33.325Z,47.26
2022-08-12T15:03:03.504Z,47.30
2022-08-12T15:06:03.403Z,47.17
2022-08-12T15:08:28.579Z,47.11
2022-08-12T15:10:57.784Z,47.03
2022-08-12T15:13:26.215Z,46.97
2022-08-12T15:15:56.355Z,46.89
2022-08-12T15:18:24.858Z,46.77
2022-08-12T15:20:54.775Z,46.73
2022-08-12T15:23:23.809Z,46.80
2022-08-12T15:26:02.729Z,46.93
2022-08-12T15:28:32.838Z,46.82
2022-08-12T15:31:00.891Z,46.77
2022-08-12T15:33:45.468Z,46.84
2022-08-12T15:36:14.548Z,47.01
2022-08-12T15:38:47.684Z,47.21
2022-08-12T15:41:22.229Z,47.39
2022-08-12T15:44:37.121Z,47.51
2022-08-12T15:46:39.640Z,47.55
2022-08-12T15:49:16.778Z,47.68
2022-08-12T15:51:58.920Z,47.82
2022-08-12T15:54:34.731Z,48.12
2022-08-12T15:57:10.689Z,48.39
2022-08-12T16:00:04.225Z,48.56
2022-08-12T16:02:29.751Z,48.73
2022-08-12T16:04:58.420Z,48.87
2022-08-12T16:07:29.996Z,48.68
2022-08-12T16:10:05.964Z,48.51
2022-08-12T16:12:42.147Z,48.29
2022-08-12T16:15:13.297Z,47.95
2022-08-12T16:18:18.522Z,47.56
2022-08-12T16:20:33.601Z,47.22
2022-08-12T16:23:04.053Z,46.93
2022-08-12T16:26:03.263Z,46.82
2022-08-12T16:28:22.684Z,46.77
2022-08-12T16:30:56.271Z,46.76
2022-08-12T16:33:24.948Z,46.84
2022-08-12T16:36:04.628Z,46.78
2022-08-12T16:38:32.996Z,46.82
2022-08-12T16:41:01.635Z,47.01
2022-08-12T16:43:33.538Z,47.10
2022-08-12T16:46:05.214Z,47.21
2022-08-12T16:48:50.527Z,47.43
2022-08-12T16:51:19.901Z,47.52
2022-08-12T16:53:49.403Z,47.49
2022-08-12T16:56:18.159Z,47.36
2022-08-12T16:58:48.192Z,47.12
2022-08-12T17:01:16.520Z,46.98
2022-08-12T17:03:52.865Z,46.85
2022-08-12T17:06:27.379Z,46.68
2022-08-12T17:09:08.805Z,46.45
2022-08-12T17:11:49.275Z,46.10
2022-08-12T17:14:23.061Z,45.77
2022-08-12T17:16:52.310Z,45.59
2022-08-12T17:19:20.391Z,45.55
2022-08-12T17:22:08.810Z,45.60
2022-08-12T17:24:37.281Z,45.55
2022-08-12T17:27:16.483Z,45.53
2022-08-12T17:30:01.578Z,45.21
2022-08-12T17:32:33.768Z,44.48
2022-08-12T17:35:36.882Z,43.41
2022-08-12T17:38:06.933Z,42.07
2022-08-12T17:40:37.095Z,41.14
2022-08-12T17:43:52.020Z,40.37
2022-08-12T17:46:00.035Z,39.60
2022-08-12T17:48:34.847Z,39.08
2022-08-12T17:51:16.198Z,38.65
2022-08-12T17:54:11.706Z,38.26
2022-08-12T17:56:36.912Z,37.99
2022-08-12T17:59:07.614Z,37.72
2022-08-12T18:01:37.237Z,37.51
2022-08-12T18:04:20.889Z,37.34
2022-08-12T18:06:50.869Z,37.02
2022-08-12T18:09:19.351Z,36.96
2022-08-12T18:12:07.912Z,36.78
2022-08-12T18:14:38.083Z,36.62
2022-08-12T18:17:10.514Z,36.53
2022-08-12T18:20:05.480Z,36.44
2022-08-12T18:22:30.411Z,36.35
2022-08-12T18:25:13.761Z,36.26
2022-08-12T18:28:16.638Z,36.16
2022-08-12T18:30:52.466Z,36.07
2022-08-12T18:33:26.124Z,36.00
2022-08-12T18:35:56.741Z,35.93
2022-08-12T18:38:25.895Z,35.85
2022-08-12T18:41:22.035Z,35.78
2022-08-12T18:43:58.751Z,35.66
2022-08-12T18:46:32.090Z,35.60
2022-08-12T18:49:17.133Z,35.52
2022-08-12T18:51:55.147Z,35.43
2022-08-12T18:54:31.063Z,35.33
2022-08-12T18:57:01.747Z,35.24
2022-08-12T19:00:01.852Z,35.14
2022-08-12T19:02:22.468Z,35.01
2022-08-12T19:04:53.219Z,34.91
2022-08-12T19:07:22.680Z,34.81
2022-08-12T19:09:58.388Z,34.67
2022-08-12T19:12:57.089Z,34.58
2022-08-12T19:15:26.004Z,34.46
2022-08-12T19:18:00.697Z,34.35
2022-08-12T19:20:35.773Z,34.23
2022-08-12T19:23:08.301Z,34.14
2022-08-12T19:26:01.241Z,34.02
2022-08-12T19:28:35.402Z,33.86
2022-08-12T19:31:44.755Z,33.67
2022-08-12T19:34:47.015Z,33.31
2022-08-12T19:37:20.100Z,33.07
2022-08-12T19:40:08.755Z,32.92
2022-08-12T19:42:41.761Z,32.76
2022-08-12T19:45:14.830Z,32.68
2022-08-12T19:47:44.780Z,32.57
2022-08-12T19:50:13.676Z,32.46
2022-08-12T19:52:51.265Z,32.36
2022-08-12T19:55:22.972Z,32.29
2022-08-12T19:58:02.866Z,32.22
2022-08-12T20:00:34.722Z,32.16
2022-08-12T20:03:04.418Z,32.13
2022-08-12T20:06:06.375Z,32.08
2022-08-12T20:08:32.858Z,31.97
2022-08-12T20:12:10.229Z,31.85
2022-08-12T20:14:01.075Z,31.77
2022-08-12T20:16:54.512Z,31.70
2022-08-12T20:19:52.188Z,31.62
2022-08-12T20:22:14.910Z,31.51
2022-08-12T20:24:55.257Z,31.42
2022-08-12T20:28:03.606Z,31.31
2022-08-12T20:30:20.673Z,31.21
2022-08-12T20:33:06.054Z,31.11
2022-08-12T20:36:06.865Z,31.02
2022-08-12T20:38:34.256Z,30.92
2022-08-12T20:41:18.967Z,30.84
2022-08-12T20:43:51.855Z,30.77
2022-08-12T20:46:20.454Z,30.71
2022-08-12T20:48:54.307Z,30.67
2022-08-12T20:51:23.522Z,30.60
2022-08-12T20:53:57.465Z,30.54
2022-08-12T20:56:34.516Z,30.45
2022-08-12T20:59:04.742Z,30.37
2022-08-12T21:01:36.681Z,30.28
2022-08-12T21:04:34.355Z,30.18
2022-08-12T21:07:08.564Z,30.07
2022-08-12T21:09:41.104Z,29.99
2022-08-12T21:12:27.928Z,29.89
2022-08-12T21:15:17.400Z,29.81
2022-08-12T21:18:08.617Z,29.68
2022-08-12T21:20:37.068Z,29.64
2022-08-12T21:23:06.389Z,29.60
2022-08-12T21:25:35.883Z,29.57
2022-08-12T21:28:14.588Z,29.52
2022-08-12T21:30:55.067Z,29.45
2022-08-12T21:33:31.815Z,29.36
2022-08-12T21:36:02.588Z,29.32
2022-08-12T21:38:34.878Z,29.27
2022-08-12T21:41:09.000Z,29.23
2022-08-12T21:43:45.278Z,29.18
2022-08-12T21:46:34.848Z,29.15
2022-08-12T21:49:05.435Z,29.10
2022-08-12T21:51:49.017Z,29.07
2022-08-12T21:54:21.678Z,29.03
2022-08-12T21:56:50.209Z,29.00
2022-08-12T21:59:20.302Z,28.95
2022-08-12T22:01:49.656Z,28.88
2022-08-12T22:04:35.776Z,28.80
2022-08-12T22:07:06.091Z,28.72
2022-08-12T22:09:43.494Z,28.69
2022-08-12T22:12:40.574Z,28.66
2022-08-12T22:15:21.330Z,28.65
2022-08-12T22:17:55.572Z,28.62
2022-08-12T22:20:29.429Z,28.59
2022-08-12T22:23:00.362Z,28.54
2022-08-12T22:25:30.325Z,28.52
2022-08-12T22:28:17.876Z,28.46
2022-08-12T22:31:15.340Z,28.36
2022-08-12T22:33:54.329Z,28.28
2022-08-12T22:36:29.282Z,28.22
2022-08-12T22:38:59.734Z,28.15
2022-08-12T22:41:45.226Z,28.07
2022-08-12T22:44:30.893Z,28.03
2022-08-12T22:47:54.238Z,27.98
2022-08-12T22:50:06.739Z,27.91
2022-08-12T22:52:35.287Z,27.93
2022-08-12T22:55:05.532Z,27.88
2022-08-12T22:57:53.851Z,27.82
2022-08-12T23:00:24.611Z,27.76
2022-08-12T23:03:00.607Z,27.74
2022-08-12T23:05:56.584Z,27.71
2022-08-12T23:08:21.680Z,27.60
2022-08-12T23:10:50.141Z,27.52
2022-08-12T23:13:43.114Z,27.46
2022-08-12T23:16:28.633Z,27.38
2022-08-12T23:19:09.894Z,27.32
2022-08-12T23:22:06.684Z,27.26
2022-08-12T23:24:38.342Z,27.19
2022-08-12T23:27:23.710Z,27.12
2022-08-12T23:29:59.554Z,27.01
2022-08-12T23:32:40.981Z,26.93
2022-08-12T23:35:10.563Z,26.88
2022-08-12T23:37:53.899Z,26.82
2022-08-12T23:40:24.740Z,26.76
2022-08-12T23:42:54.369Z,26.69
2022-08-12T23:45:32.026Z,26.63
2022-08-12T23:48:02.544Z,26.55
2022-08-12T23:50:34.048Z,26.52
2022-08-12T23:53:05.519Z,26.52
2022-08-12T23:55:38.205Z,26.48
2022-08-12T23:58:21.702Z,26.45
